Ney, Ohio
Current Conditions -  °F | °C
As of 4:53 AM on Wednesday 22 Oct 2014 (Local Time) from KDFI Reporting Station
Overcast Overcast  
Wind Chill: 40°   Ceiling: 1800
Heat Index: 44°   Visibility: 10mi
Dew Point: 36°   Wind: 7mph
Humidity: 73%   Direction: 360°N
Pressure: 30.25"   Gusts: NA
Location:  41.38°N, 84.52°W
Report Text: KDFI 220853Z AUTO 36006KT 10SM BKN018 OVC037 07/02 A3025 RMK AO2 SLP247 T00670022 53008
Loading
Personal Weather Stations






























Interactive Weather Map
Tropical Storm Tracking
New forecast layout! Learn more

10-Day Weather Forecast

Advertisements
Track Severe Weather on mobile